Time;durP1;ratioP1;P1;durP2;ratioP2;P2;SDS_P1;SDS_P2;PMS_P1;PMS_P2;Temp;Humidity;BMP_temperature;BMP_pressure;BME280_temperature;BME280_humidity;BME280_pressure;Samples;Min_cycle;Max_cycle;Signal;HPM_P1;HPM_P2
2023/07/01 00:01:51;;;;;;;4.80;3.50;;;;;;;;;;5050437;28;20406;-80
2023/07/01 00:04:17;;;;;;;3.90;3.60;;;;;;;;;;5051503;28;20389;-80
2023/07/01 00:06:43;;;;;;;4.47;3.47;;;;;;;;;;5051767;28;20405;-79
2023/07/01 00:09:10;;;;;;;4.30;3.83;;;;;;;;;;5052214;28;20431;-80
2023/07/01 00:11:36;;;;;;;4.40;4.00;;;;;;;;;;5042834;28;20948;-79
2023/07/01 00:14:02;;;;;;;4.00;3.70;;;;;;;;;;5050106;28;20393;-79
2023/07/01 00:16:28;;;;;;;4.57;4.03;;;;;;;;;;5049072;28;20446;-80
2023/07/01 00:18:54;;;;;;;4.80;4.30;;;;;;;;;;5049826;28;20797;-80
2023/07/01 00:21:20;;;;;;;4.03;3.63;;;;;;;;;;5053174;28;20404;-80
2023/07/01 00:23:47;;;;;;;4.13;3.72;;;;;;;;;;5052893;28;20778;-81
2023/07/01 00:26:13;;;;;;;3.83;3.35;;;;;;;;;;5053197;28;20379;-80
2023/07/01 00:28:38;;;;;;;4.75;3.60;;;;;;;;;;5045320;28;20415;-79
2023/07/01 00:31:05;;;;;;;4.88;4.03;;;;;;;;;;5038210;28;20378;-80
2023/07/01 00:33:30;;;;;;;4.05;3.65;;;;;;;;;;5034931;28;20869;-79
2023/07/01 00:35:56;;;;;;;3.95;3.65;;;;;;;;;;5034887;28;20445;-79
2023/07/01 00:38:22;;;;;;;4.13;3.72;;;;;;;;;;5051366;28;20798;-80
2023/07/01 00:40:48;;;;;;;3.92;3.60;;;;;;;;;;5038497;28;20417;-80
2023/07/01 00:43:14;;;;;;;3.92;3.58;;;;;;;;;;5051894;28;20385;-79
2023/07/01 00:45:40;;;;;;;3.97;3.67;;;;;;;;;;5048284;28;20373;-79
2023/07/01 00:48:07;;;;;;;4.40;4.00;;;;;;;;;;5046782;28;20384;-79
2023/07/01 00:50:33;;;;;;;3.90;3.60;;;;;;;;;;5053382;28;20427;-79
2023/07/01 00:52:59;;;;;;;5.65;3.95;;;;;;;;;;5053287;28;20377;-80
2023/07/01 00:55:25;;;;;;;4.22;3.83;;;;;;;;;;5053086;28;20424;-80
2023/07/01 00:57:51;;;;;;;3.78;3.45;;;;;;;;;;5052504;28;20877;-80
2023/07/01 01:00:18;;;;;;;4.60;4.20;;;;;;;;;;5034251;28;20739;-80
2023/07/01 01:02:56;;;;;;;4.15;3.85;;;;;;;;;;5053141;28;20417;-80
2023/07/01 01:05:29;;;;;;;4.18;3.88;;;;;;;;;;5048540;28;20931;-80
2023/07/01 01:07:55;;;;;;;4.28;3.97;;;;;;;;;;5053244;28;20390;-80
2023/07/01 01:10:22;;;;;;;4.13;3.83;;;;;;;;;;5035676;28;20384;-81
2023/07/01 01:12:50;;;;;;;4.25;3.85;;;;;;;;;;5053205;28;20468;-81
2023/07/01 01:15:16;;;;;;;5.10;4.63;;;;;;;;;;5052760;28;20381;-79
2023/07/01 01:17:43;;;;;;;5.03;4.60;;;;;;;;;;5053107;28;20859;-79
2023/07/01 01:20:13;;;;;;;4.40;4.00;;;;;;;;;;5053035;28;20416;-79
2023/07/01 01:22:58;;;;;;;4.82;4.43;;;;;;;;;;5052997;28;20411;-79
2023/07/01 01:25:29;;;;;;;5.38;4.88;;;;;;;;;;5052485;28;20373;-81
2023/07/01 01:27:56;;;;;;;4.88;4.47;;;;;;;;;;5053492;28;20382;-80
2023/07/01 01:30:25;;;;;;;4.90;4.50;;;;;;;;;;5051767;28;20859;-80
2023/07/01 01:32:51;;;;;;;5.05;4.65;;;;;;;;;;5052516;28;20885;-80
2023/07/01 01:35:17;;;;;;;5.97;5.50;;;;;;;;;;5052599;28;20381;-79
2023/07/01 01:37:53;;;;;;;5.65;5.07;;;;;;;;;;5052036;28;20443;-80
2023/07/01 01:40:34;;;;;;;4.28;3.97;;;;;;;;;;5049812;28;20396;-80
2023/07/01 01:43:05;;;;;;;4.75;4.35;;;;;;;;;;5052548;28;20421;-79
2023/07/01 01:45:31;;;;;;;4.70;4.30;;;;;;;;;;5051148;28;20867;-79
2023/07/01 01:47:58;;;;;;;4.70;4.30;;;;;;;;;;5052298;28;20409;-80
2023/07/01 01:50:24;;;;;;;5.20;4.70;;;;;;;;;;5052209;28;20382;-80
2023/07/01 01:52:51;;;;;;;5.03;4.53;;;;;;;;;;5052422;28;20898;-80
2023/07/01 01:55:17;;;;;;;4.72;4.40;;;;;;;;;;5052116;28;20389;-79
2023/07/01 01:57:44;;;;;;;5.05;4.65;;;;;;;;;;5052372;28;20373;-80
2023/07/01 02:00:13;;;;;;;4.70;4.30;;;;;;;;;;5051818;28;20551;-80
2023/07/01 02:02:39;;;;;;;4.93;4.43;;;;;;;;;;5052104;28;20437;-80
2023/07/01 02:05:05;;;;;;;5.18;4.68;;;;;;;;;;5052672;28;20423;-80
2023/07/01 02:07:31;;;;;;;5.18;4.78;;;;;;;;;;5052034;28;20437;-80
2023/07/01 02:09:57;;;;;;;5.35;4.93;;;;;;;;;;5046994;28;20406;-79
2023/07/01 02:12:25;;;;;;;5.10;4.60;;;;;;;;;;5047383;28;20378;-79
2023/07/01 02:14:51;;;;;;;4.70;4.38;;;;;;;;;;5046326;28;20397;-80
2023/07/01 02:17:17;;;;;;;5.43;4.88;;;;;;;;;;5047987;28;20739;-80
2023/07/01 02:19:43;;;;;;;5.20;4.70;;;;;;;;;;5050189;28;20482;-80
2023/07/01 02:22:09;;;;;;;5.20;4.80;;;;;;;;;;5051244;28;20405;-79
2023/07/01 02:24:35;;;;;;;5.38;4.88;;;;;;;;;;5051367;28;20374;-79
2023/07/01 02:27:01;;;;;;;4.90;4.50;;;;;;;;;;5050908;28;20392;-80
2023/07/01 02:29:27;;;;;;;5.38;4.13;;;;;;;;;;5050298;28;20377;-80
2023/07/01 02:31:53;;;;;;;5.30;4.82;;;;;;;;;;5051313;28;20386;-80
2023/07/01 02:34:25;;;;;;;5.32;4.85;;;;;;;;;;5051243;28;20381;-80
2023/07/01 02:36:51;;;;;;;4.93;4.53;;;;;;;;;;5048861;28;20379;-80
2023/07/01 02:39:17;;;;;;;4.38;4.05;;;;;;;;;;5050158;28;20388;-80
2023/07/01 02:41:43;;;;;;;4.40;4.10;;;;;;;;;;5050847;28;20405;-80
2023/07/01 02:44:11;;;;;;;4.82;4.43;;;;;;;;;;5049363;28;20891;-80
2023/07/01 02:46:37;;;;;;;4.75;4.25;;;;;;;;;;5050824;28;20385;-81
2023/07/01 02:49:04;;;;;;;5.77;5.17;;;;;;;;;;5050522;28;20419;-81
2023/07/01 02:51:30;;;;;;;4.78;4.38;;;;;;;;;;5050595;28;20381;-81
2023/07/01 02:53:56;;;;;;;4.95;4.45;;;;;;;;;;5051018;28;20735;-81
2023/07/01 02:56:22;;;;;;;5.07;4.60;;;;;;;;;;5048883;28;20390;-81
2023/07/01 02:58:48;;;;;;;4.97;4.57;;;;;;;;;;5050735;28;20428;-81
2023/07/01 03:01:14;;;;;;;5.20;4.53;;;;;;;;;;5052146;28;20409;-81
2023/07/01 03:03:40;;;;;;;4.63;4.30;;;;;;;;;;5054767;28;20388;-80
2023/07/01 03:06:09;;;;;;;5.20;4.70;;;;;;;;;;5054401;28;20397;-80
2023/07/01 03:08:35;;;;;;;5.40;4.90;;;;;;;;;;5054373;28;20388;-80
2023/07/01 03:11:03;;;;;;;4.93;4.43;;;;;;;;;;5054397;28;20417;-81
2023/07/01 03:13:29;;;;;;;5.55;4.93;;;;;;;;;;5054732;28;20886;-80
2023/07/01 03:15:56;;;;;;;5.45;4.95;;;;;;;;;;5055334;28;20747;-80
2023/07/01 03:18:22;;;;;;;4.85;4.45;;;;;;;;;;5055342;28;20386;-80
2023/07/01 03:20:49;;;;;;;6.18;4.40;;;;;;;;;;5055297;28;20374;-80
2023/07/01 03:23:16;;;;;;;4.40;4.00;;;;;;;;;;5055229;28;20378;-80
2023/07/01 03:25:42;;;;;;;5.10;4.60;;;;;;;;;;5054758;28;20462;-80
2023/07/01 03:28:08;;;;;;;4.97;4.57;;;;;;;;;;5054695;28;20377;-80
2023/07/01 03:30:35;;;;;;;5.05;4.65;;;;;;;;;;5055248;28;20377;-80
2023/07/01 03:33:01;;;;;;;4.75;4.35;;;;;;;;;;5054137;28;20839;-80
2023/07/01 03:35:27;;;;;;;5.15;4.20;;;;;;;;;;5053983;28;20387;-81
2023/07/01 03:37:53;;;;;;;4.60;4.20;;;;;;;;;;5054884;28;20385;-80
2023/07/01 03:40:19;;;;;;;4.45;4.13;;;;;;;;;;5054512;28;20431;-81
2023/07/01 03:42:45;;;;;;;4.30;3.90;;;;;;;;;;5049926;28;20420;-80
2023/07/01 03:45:12;;;;;;;4.30;4.00;;;;;;;;;;5054904;28;20377;-80
2023/07/01 03:47:39;;;;;;;4.53;4.13;;;;;;;;;;5054621;28;20722;-81
2023/07/01 03:50:09;;;;;;;4.90;4.50;;;;;;;;;;5054334;28;20381;-79
2023/07/01 03:52:38;;;;;;;4.00;3.70;;;;;;;;;;5054246;28;20389;-81
2023/07/01 03:55:05;;;;;;;4.53;4.18;;;;;;;;;;5051427;28;20822;-79
2023/07/01 03:57:31;;;;;;;4.75;4.28;;;;;;;;;;5054809;28;20381;-81
2023/07/01 03:59:57;;;;;;;4.07;3.67;;;;;;;;;;5054066;28;20478;-81
2023/07/01 04:02:23;;;;;;;4.18;3.88;;;;;;;;;;5053933;28;20417;-81
2023/07/01 04:04:49;;;;;;;3.95;3.65;;;;;;;;;;5061516;28;20381;-81
2023/07/01 04:07:21;;;;;;;4.10;3.70;;;;;;;;;;5057157;28;20437;-81
2023/07/01 04:09:48;;;;;;;4.40;4.00;;;;;;;;;;5051420;28;20745;-81
2023/07/01 04:12:14;;;;;;;3.97;3.67;;;;;;;;;;5053009;28;20377;-81
2023/07/01 04:14:40;;;;;;;4.30;4.00;;;;;;;;;;5044740;28;20853;-81
2023/07/01 04:17:06;;;;;;;4.10;3.73;;;;;;;;;;5038200;28;20391;-81
2023/07/01 04:19:32;;;;;;;4.00;3.50;;;;;;;;;;5049855;28;20382;-81
2023/07/01 04:21:58;;;;;;;4.15;3.85;;;;;;;;;;5053747;28;20479;-81
2023/07/01 04:24:24;;;;;;;3.60;3.30;;;;;;;;;;5054722;28;20381;-81
2023/07/01 04:26:50;;;;;;;5.03;4.63;;;;;;;;;;5053443;28;20742;-81
2023/07/01 04:29:16;;;;;;;4.20;3.90;;;;;;;;;;5054454;28;20378;-81
2023/07/01 04:31:42;;;;;;;4.20;3.78;;;;;;;;;;5054232;28;20380;-79
2023/07/01 04:34:08;;;;;;;4.47;4.07;;;;;;;;;;5053959;28;20383;-79
2023/07/01 04:36:34;;;;;;;4.57;4.18;;;;;;;;;;5067840;28;20380;-80
2023/07/01 04:39:00;;;;;;;3.60;3.30;;;;;;;;;;5073790;28;20509;-79
2023/07/01 04:41:26;;;;;;;4.50;3.70;;;;;;;;;;5073316;28;20997;-79
2023/07/01 04:43:52;;;;;;;4.35;3.95;;;;;;;;;;5038278;28;20386;-81
2023/07/01 04:46:18;;;;;;;3.78;3.47;;;;;;;;;;5053507;28;20382;-81
2023/07/01 04:48:44;;;;;;;4.05;3.78;;;;;;;;;;5053353;28;20381;-82
2023/07/01 04:51:10;;;;;;;4.20;3.90;;;;;;;;;;5061519;28;20395;-81
2023/07/01 04:53:38;;;;;;;4.00;3.70;;;;;;;;;;5034014;28;20768;-79
2023/07/01 04:56:05;;;;;;;4.40;4.00;;;;;;;;;;5045898;28;20387;-80
2023/07/01 04:58:31;;;;;;;4.53;3.87;;;;;;;;;;5064270;28;20536;-79
2023/07/01 05:00:57;;;;;;;4.45;4.07;;;;;;;;;;5072402;28;20498;-79
2023/07/01 05:03:22;;;;;;;4.00;3.60;;;;;;;;;;5047469;28;20381;-79
2023/07/01 05:05:48;;;;;;;4.80;4.30;;;;;;;;;;5054289;28;20751;-80
2023/07/01 05:08:14;;;;;;;4.00;3.70;;;;;;;;;;5072786;28;20471;-80
2023/07/01 05:10:41;;;;;;;3.78;3.50;;;;;;;;;;5072647;28;20702;-80
2023/07/01 05:13:07;;;;;;;3.92;3.63;;;;;;;;;;5072763;28;20380;-80
2023/07/01 05:15:33;;;;;;;4.28;3.88;;;;;;;;;;5072574;28;20394;-80
2023/07/01 05:17:59;;;;;;;3.75;3.45;;;;;;;;;;5055024;28;20377;-80
2023/07/01 05:20:25;;;;;;;3.55;3.25;;;;;;;;;;5053755;28;20377;-81
2023/07/01 05:22:51;;;;;;;3.83;3.40;;;;;;;;;;5052711;28;20528;-81
2023/07/01 05:25:17;;;;;;;4.45;3.90;;;;;;;;;;5051053;28;20381;-80
2023/07/01 05:27:43;;;;;;;4.15;3.75;;;;;;;;;;5052886;28;20384;-81
2023/07/01 05:30:09;;;;;;;3.97;3.60;;;;;;;;;;5051442;28;20385;-79
2023/07/01 05:32:35;;;;;;;3.53;3.22;;;;;;;;;;5061729;28;20462;-79
2023/07/01 05:35:02;;;;;;;3.95;3.55;;;;;;;;;;5054641;28;20459;-79
2023/07/01 05:37:28;;;;;;;3.85;3.47;;;;;;;;;;5072552;28;20470;-80
2023/07/01 05:39:54;;;;;;;3.90;3.53;;;;;;;;;;5072038;28;20391;-81
2023/07/01 05:42:20;;;;;;;3.73;3.43;;;;;;;;;;5066976;28;20467;-79
2023/07/01 05:44:46;;;;;;;3.90;3.60;;;;;;;;;;5052409;28;20731;-79
2023/07/01 05:47:12;;;;;;;4.13;3.75;;;;;;;;;;5051859;28;20388;-80
2023/07/01 05:49:38;;;;;;;3.88;3.58;;;;;;;;;;5045087;28;20380;-79
2023/07/01 05:52:05;;;;;;;4.40;4.10;;;;;;;;;;5049800;28;20946;-79
2023/07/01 05:54:31;;;;;;;4.10;3.67;;;;;;;;;;5051745;28;20385;-80
2023/07/01 05:56:57;;;;;;;3.80;3.50;;;;;;;;;;5050532;28;20401;-79
2023/07/01 05:59:23;;;;;;;3.83;3.53;;;;;;;;;;5052077;28;20382;-79
2023/07/01 06:01:49;;;;;;;3.90;3.60;;;;;;;;;;5052059;28;20894;-79
2023/07/01 06:04:15;;;;;;;3.50;3.20;;;;;;;;;;5052008;28;20377;-80
2023/07/01 06:06:44;;;;;;;4.43;3.22;;;;;;;;;;5051428;28;20397;-79
2023/07/01 06:09:10;;;;;;;4.25;3.85;;;;;;;;;;5048480;28;20389;-80
2023/07/01 06:11:36;;;;;;;4.30;4.00;;;;;;;;;;5046186;28;20381;-79
2023/07/01 06:14:02;;;;;;;4.22;3.83;;;;;;;;;;5034467;28;20640;-79
2023/07/01 06:16:31;;;;;;;4.10;3.80;;;;;;;;;;5049481;28;20385;-79
2023/07/01 06:18:57;;;;;;;4.18;3.83;;;;;;;;;;5046964;28;20395;-79
2023/07/01 06:21:23;;;;;;;4.53;3.85;;;;;;;;;;5036190;28;20906;-80
2023/07/01 06:23:49;;;;;;;4.10;3.80;;;;;;;;;;5048950;28;20488;-80
2023/07/01 06:26:15;;;;;;;4.57;4.18;;;;;;;;;;5051532;28;20381;-79
2023/07/01 06:28:42;;;;;;;4.20;3.53;;;;;;;;;;5042404;28;20391;-79
2023/07/01 06:31:08;;;;;;;4.22;3.30;;;;;;;;;;5048292;28;20413;-78
2023/07/01 06:33:40;;;;;;;3.55;3.25;;;;;;;;;;5049506;28;20409;-78
2023/07/01 06:36:06;;;;;;;3.90;3.45;;;;;;;;;;5045739;28;20412;-79
2023/07/01 06:38:32;;;;;;;3.67;3.40;;;;;;;;;;5055775;28;20464;-78
2023/07/01 06:40:58;;;;;;;3.70;3.40;;;;;;;;;;5055668;28;20504;-79
2023/07/01 06:43:24;;;;;;;3.72;3.42;;;;;;;;;;5055981;28;20384;-79
2023/07/01 06:45:50;;;;;;;5.25;3.40;;;;;;;;;;5055116;28;20896;-80
2023/07/01 06:48:19;;;;;;;3.45;3.05;;;;;;;;;;5053055;28;20397;-80
2023/07/01 06:50:45;;;;;;;4.00;3.50;;;;;;;;;;5052077;28;20404;-79
2023/07/01 06:53:11;;;;;;;3.97;3.58;;;;;;;;;;5055543;28;20382;-79
2023/07/01 06:55:37;;;;;;;4.50;3.20;;;;;;;;;;5055312;28;20443;-79
2023/07/01 06:58:03;;;;;;;4.75;3.10;;;;;;;;;;5055647;28;20790;-80
2023/07/01 07:00:30;;;;;;;4.68;3.50;;;;;;;;;;5054270;28;20386;-79
2023/07/01 07:02:56;;;;;;;3.50;3.20;;;;;;;;;;5034375;28;21007;-79
2023/07/01 07:05:22;;;;;;;3.90;3.08;;;;;;;;;;5052948;28;20472;-79
2023/07/01 07:07:48;;;;;;;3.35;3.05;;;;;;;;;;5053769;28;20443;-80
2023/07/01 07:10:14;;;;;;;3.97;3.35;;;;;;;;;;5054505;28;20381;-80
2023/07/01 07:12:40;;;;;;;3.85;3.03;;;;;;;;;;5055359;28;20921;-80
2023/07/01 07:15:07;;;;;;;3.67;3.00;;;;;;;;;;5055503;28;20393;-79
2023/07/01 07:17:34;;;;;;;3.03;2.72;;;;;;;;;;5055097;28;20468;-79
2023/07/01 07:20:00;;;;;;;3.75;2.83;;;;;;;;;;5055178;28;20386;-80
2023/07/01 07:22:26;;;;;;;2.67;2.47;;;;;;;;;;5054959;28;20805;-81
2023/07/01 07:24:52;;;;;;;3.47;2.55;;;;;;;;;;5055244;28;20381;-81
2023/07/01 07:27:18;;;;;;;2.70;2.50;;;;;;;;;;5055049;28;20373;-79
2023/07/01 07:29:44;;;;;;;3.17;2.80;;;;;;;;;;5053637;28;20834;-79
2023/07/01 07:32:11;;;;;;;2.95;2.65;;;;;;;;;;5055107;28;20392;-79
2023/07/01 07:34:38;;;;;;;2.90;2.70;;;;;;;;;;5055373;28;20386;-80
2023/07/01 07:37:04;;;;;;;3.67;2.55;;;;;;;;;;5054231;28;20381;-80
2023/07/01 07:39:31;;;;;;;3.35;2.50;;;;;;;;;;5036921;28;20854;-81
2023/07/01 07:41:57;;;;;;;4.25;2.65;;;;;;;;;;5054271;28;20409;-82
2023/07/01 07:44:23;;;;;;;2.58;2.38;;;;;;;;;;5054622;28;20425;-82
2023/07/01 07:46:49;;;;;;;3.83;2.53;;;;;;;;;;5054326;28;20782;-82
2023/07/01 07:49:16;;;;;;;3.50;2.13;;;;;;;;;;5054206;28;20377;-81
2023/07/01 07:51:43;;;;;;;2.47;2.28;;;;;;;;;;5054503;28;20373;-80
2023/07/01 07:54:09;;;;;;;3.13;2.15;;;;;;;;;;5054012;28;20373;-85
2023/07/01 07:56:35;;;;;;;4.63;2.20;;;;;;;;;;5054232;28;20393;-83
2023/07/01 07:59:01;;;;;;;5.53;1.87;;;;;;;;;;5054703;28;20418;-82
2023/07/01 08:01:27;;;;;;;1.70;1.60;;;;;;;;;;5054069;28;20420;-84
2023/07/01 08:03:53;;;;;;;2.03;1.55;;;;;;;;;;5054081;28;20377;-81
2023/07/01 08:06:19;;;;;;;3.20;1.50;;;;;;;;;;5055129;28;20801;-80
2023/07/01 08:08:45;;;;;;;4.18;1.50;;;;;;;;;;5054216;28;20515;-82
2023/07/01 08:11:11;;;;;;;3.03;1.10;;;;;;;;;;5055389;28;20378;-80
2023/07/01 08:13:37;;;;;;;1.58;1.30;;;;;;;;;;5054384;28;20476;-80
2023/07/01 08:16:04;;;;;;;1.30;1.00;;;;;;;;;;5053607;28;20861;-80
2023/07/01 08:18:31;;;;;;;1.63;1.10;;;;;;;;;;5053269;28;20512;-79
2023/07/01 08:20:57;;;;;;;3.10;1.30;;;;;;;;;;5043917;28;20387;-79
2023/07/01 08:23:23;;;;;;;1.97;1.00;;;;;;;;;;5043144;28;20465;-79
2023/07/01 08:25:49;;;;;;;5.18;1.10;;;;;;;;;;5053675;28;20851;-80
2023/07/01 08:28:15;;;;;;;1.60;0.90;;;;;;;;;;5050652;28;20378;-80
2023/07/01 08:30:41;;;;;;;3.50;1.00;;;;;;;;;;5053777;28;20898;-81
2023/07/01 08:33:07;;;;;;;1.10;1.00;;;;;;;;;;5053845;28;20374;-81
2023/07/01 08:35:36;;;;;;;2.30;1.10;;;;;;;;;;5053721;28;20470;-81
2023/07/01 08:38:02;;;;;;;1.88;1.20;;;;;;;;;;5053475;28;20381;-80
2023/07/01 08:40:28;;;;;;;5.50;1.27;;;;;;;;;;5053357;28;20381;-80
2023/07/01 08:43:02;;;;;;;3.30;1.05;;;;;;;;;;5053301;28;20405;-81
2023/07/01 08:45:29;;;;;;;2.70;1.17;;;;;;;;;;5053295;28;20373;-82
2023/07/01 08:47:58;;;;;;;3.33;1.00;;;;;;;;;;5053418;28;20920;-82
2023/07/01 08:50:27;;;;;;;3.88;1.27;;;;;;;;;;5050556;28;20479;-81
2023/07/01 08:52:57;;;;;;;2.40;1.08;;;;;;;;;;5053345;28;20481;-86
2023/07/01 08:55:23;;;;;;;6.38;1.40;;;;;;;;;;5049780;28;20382;-83
2023/07/01 08:57:49;;;;;;;1.67;1.10;;;;;;;;;;5053035;28;20811;-83
2023/07/01 09:00:15;;;;;;;2.25;0.95;;;;;;;;;;5048778;28;20850;-81
2023/07/01 09:02:42;;;;;;;2.00;0.93;;;;;;;;;;5044071;28;20905;-81
2023/07/01 09:05:08;;;;;;;20.73;2.10;;;;;;;;;;5053089;28;20393;-83
2023/07/01 09:07:34;;;;;;;2.45;1.00;;;;;;;;;;5040005;28;20403;-81
2023/07/01 09:10:02;;;;;;;2.28;0.95;;;;;;;;;;5035342;28;20881;-83
2023/07/01 09:12:28;;;;;;;2.35;1.10;;;;;;;;;;5053116;28;20385;-85
2023/07/01 09:14:58;;;;;;;2.10;1.00;;;;;;;;;;5052521;28;20468;-83
2023/07/01 09:17:27;;;;;;;1.20;1.00;;;;;;;;;;5052844;28;20463;-82
2023/07/01 09:19:53;;;;;;;2.65;1.20;;;;;;;;;;5052148;28;20467;-83
2023/07/01 09:22:19;;;;;;;4.07;1.25;;;;;;;;;;5053313;28;20500;-83
2023/07/01 09:24:45;;;;;;;3.55;1.20;;;;;;;;;;5052591;28;20378;-84
2023/07/01 09:27:11;;;;;;;1.90;1.10;;;;;;;;;;5052271;28;20388;-86
2023/07/01 09:29:40;;;;;;;2.67;1.10;;;;;;;;;;5052519;28;20873;-81
2023/07/01 09:32:06;;;;;;;5.45;1.17;;;;;;;;;;5040180;28;20435;-81
2023/07/01 09:34:57;;;;;;;1.83;1.08;;;;;;;;;;5052515;28;20417;-82
2023/07/01 09:37:23;;;;;;;1.65;1.13;;;;;;;;;;5052604;28;20373;-85
2023/07/01 09:39:49;;;;;;;4.25;1.20;;;;;;;;;;5051238;28;20407;-84
2023/07/01 09:42:18;;;;;;;2.30;1.00;;;;;;;;;;5048063;28;20743;-86
2023/07/01 09:45:03;;;;;;;1.92;1.08;;;;;;;;;;5052909;28;20439;-83
2023/07/01 09:47:30;;;;;;;1.63;1.00;;;;;;;;;;5052874;28;20373;-85
2023/07/01 09:49:56;;;;;;;3.20;1.20;;;;;;;;;;5052250;28;20381;-86
2023/07/01 09:52:34;;;;;;;1.80;1.10;;;;;;;;;;5053295;28;20869;-85
2023/07/01 09:55:01;;;;;;;1.70;0.88;;;;;;;;;;5034441;28;20435;-83
2023/07/01 09:57:28;;;;;;;2.75;1.05;;;;;;;;;;5050342;28;20397;-87
2023/07/01 09:59:54;;;;;;;2.50;1.00;;;;;;;;;;5052533;28;20924;-84
2023/07/01 10:02:20;;;;;;;2.97;1.02;;;;;;;;;;5052707;28;20921;-82
2023/07/01 10:04:46;;;;;;;1.40;1.30;;;;;;;;;;5050836;28;20378;-87
2023/07/01 10:07:12;;;;;;;2.17;1.10;;;;;;;;;;5033731;28;20886;-88
2023/07/01 10:09:45;;;;;;;1.33;1.20;;;;;;;;;;5052579;28;20392;-85
2023/07/01 10:12:13;;;;;;;2.38;1.25;;;;;;;;;;5056395;28;20384;-85
2023/07/01 10:14:40;;;;;;;3.17;1.13;;;;;;;;;;5056167;28;20743;-85
2023/07/01 10:17:06;;;;;;;2.00;1.17;;;;;;;;;;5056551;28;20385;-86
2023/07/01 10:19:35;;;;;;;2.55;1.30;;;;;;;;;;5056449;28;20460;-89
2023/07/01 10:22:24;;;;;;;1.45;1.15;;;;;;;;;;5056001;28;20803;-86
2023/07/01 10:24:57;;;;;;;1.70;1.05;;;;;;;;;;5056314;28;20430;-88
2023/07/01 10:27:41;;;;;;;1.50;1.33;;;;;;;;;;5056109;28;20384;-88
2023/07/01 10:30:12;;;;;;;1.65;1.17;;;;;;;;;;5056235;28;20388;-87
2023/07/01 10:32:38;;;;;;;2.95;1.25;;;;;;;;;;5055743;28;20386;-85
2023/07/01 10:35:04;;;;;;;1.75;1.20;;;;;;;;;;5056038;28;20439;-85
2023/07/01 10:37:32;;;;;;;2.10;1.27;;;;;;;;;;5055844;28;20389;-83
2023/07/01 10:39:59;;;;;;;3.03;1.30;;;;;;;;;;5055730;28;20377;-84
2023/07/01 10:42:32;;;;;;;1.50;1.30;;;;;;;;;;5055653;28;20405;-85
2023/07/01 10:45:13;;;;;;;2.58;1.30;;;;;;;;;;5038006;28;20386;-85
2023/07/01 10:47:43;;;;;;;1.55;1.45;;;;;;;;;;5055694;28;20389;-84
2023/07/01 10:50:09;;;;;;;4.10;1.40;;;;;;;;;;5055755;28;20435;-85
2023/07/01 10:52:54;;;;;;;2.37;1.20;;;;;;;;;;5055588;28;20803;-84
2023/07/01 10:55:36;;;;;;;2.78;1.38;;;;;;;;;;5055482;28;20505;-84
2023/07/01 10:58:14;;;;;;;2.65;1.27;;;;;;;;;;5052404;28;20381;-85
2023/07/01 11:00:40;;;;;;;1.85;1.38;;;;;;;;;;5055432;28;20382;-84
2023/07/01 11:03:32;;;;;;;1.77;1.10;;;;;;;;;;5052745;28;20407;-83
2023/07/01 11:05:59;;;;;;;1.77;1.40;;;;;;;;;;5055221;28;20401;-83
2023/07/01 11:08:25;;;;;;;2.33;1.48;;;;;;;;;;5055618;28;20894;-83
2023/07/01 11:10:52;;;;;;;1.60;1.20;;;;;;;;;;5055327;28;20405;-86
2023/07/01 11:13:18;;;;;;;1.90;1.38;;;;;;;;;;5055041;28;20556;-84
2023/07/01 11:16:03;;;;;;;2.60;1.30;;;;;;;;;;5054925;28;20386;-84
2023/07/01 11:18:47;;;;;;;2.97;1.40;;;;;;;;;;5054914;28;20405;-84
2023/07/01 11:21:14;;;;;;;1.77;1.30;;;;;;;;;;5054629;28;20413;-85
2023/07/01 11:23:51;;;;;;;1.92;1.50;;;;;;;;;;5053952;28;20397;-84
2023/07/01 11:26:27;;;;;;;1.30;1.20;;;;;;;;;;5036976;28;20472;-84
2023/07/01 11:28:53;;;;;;;1.58;1.48;;;;;;;;;;5054784;28;20377;-84
2023/07/01 11:31:21;;;;;;;2.10;1.48;;;;;;;;;;5028041;28;20402;-83
2023/07/01 11:33:51;;;;;;;1.50;1.40;;;;;;;;;;5065915;22;20369;-86
2023/07/01 11:36:18;;;;;;;1.75;1.40;;;;;;;;;;5045176;28;20378;-89
2023/07/01 11:38:49;;;;;;;1.92;1.42;;;;;;;;;;5054268;28;20396;-88
2023/07/01 11:41:20;;;;;;;2.42;1.17;;;;;;;;;;5054226;28;20412;-86
2023/07/01 11:43:47;;;;;;;1.90;1.30;;;;;;;;;;5054500;28;20435;-87
2023/07/01 11:46:13;;;;;;;1.40;1.30;;;;;;;;;;5054421;28;20375;-89
2023/07/01 11:48:40;;;;;;;1.80;1.50;;;;;;;;;;5054210;28;20405;-90
2023/07/01 11:51:06;;;;;;;2.50;1.60;;;;;;;;;;5054208;28;20416;-88
2023/07/01 11:53:33;;;;;;;1.58;1.48;;;;;;;;;;5041700;28;20385;-85
2023/07/01 11:56:02;;;;;;;1.83;1.42;;;;;;;;;;5052969;28;20786;-87
2023/07/01 11:58:37;;;;;;;2.38;1.58;;;;;;;;;;5053471;28;20477;-88
2023/07/01 12:01:03;;;;;;;1.90;1.30;;;;;;;;;;5044890;28;20373;-89
2023/07/01 12:03:33;;;;;;;3.00;1.60;;;;;;;;;;5043281;28;20411;-87
2023/07/01 12:05:59;;;;;;;1.60;1.45;;;;;;;;;;5050872;28;20378;-86
2023/07/01 12:08:25;;;;;;;1.90;1.38;;;;;;;;;;5053761;28;20376;-88
2023/07/01 12:10:52;;;;;;;1.67;1.30;;;;;;;;;;5049992;28;20390;-88
2023/07/01 12:13:33;;;;;;;2.10;1.20;;;;;;;;;;5033819;28;20391;-88
2023/07/01 12:15:59;;;;;;;1.52;1.40;;;;;;;;;;5033222;28;20390;-86
2023/07/01 12:18:27;;;;;;;1.52;1.30;;;;;;;;;;5033514;28;20383;-88
2023/07/01 12:20:56;;;;;;;1.33;1.23;;;;;;;;;;5033729;28;20383;-85
2023/07/01 12:23:23;;;;;;;2.95;1.30;;;;;;;;;;5029390;28;20714;-87
2023/07/01 12:25:49;;;;;;;2.50;1.40;;;;;;;;;;5032451;28;20529;-87
2023/07/01 12:28:15;;;;;;;3.25;1.33;;;;;;;;;;5033094;28;20426;-87
2023/07/01 12:30:41;;;;;;;1.38;1.23;;;;;;;;;;5033505;28;20428;-87
2023/07/01 12:33:07;;;;;;;2.05;1.42;;;;;;;;;;5032850;28;20474;-87
2023/07/01 12:35:33;;;;;;;3.00;1.33;;;;;;;;;;5032763;28;20434;-87
2023/07/01 12:37:59;;;;;;;1.42;1.33;;;;;;;;;;5033726;28;20943;-87
2023/07/01 12:40:27;;;;;;;1.83;1.00;;;;;;;;;;5033190;28;20387;-88
2023/07/01 12:42:53;;;;;;;2.25;1.17;;;;;;;;;;5032487;28;20415;-86
2023/07/01 12:45:19;;;;;;;2.00;1.20;;;;;;;;;;5033235;28;20795;-87
2023/07/01 12:47:45;;;;;;;1.73;1.27;;;;;;;;;;5033130;28;20864;-86
2023/07/01 12:50:11;;;;;;;1.63;1.27;;;;;;;;;;5033020;28;20379;-87
2023/07/01 12:52:37;;;;;;;1.63;1.10;;;;;;;;;;5032737;28;20431;-88
2023/07/01 12:55:08;;;;;;;1.25;1.10;;;;;;;;;;5033035;28;20462;-88
2023/07/01 12:57:35;;;;;;;1.73;1.20;;;;;;;;;;5032980;28;20407;-89
2023/07/01 13:00:01;;;;;;;1.27;1.00;;;;;;;;;;5033032;28;20382;-88
2023/07/01 13:02:27;;;;;;;2.10;1.10;;;;;;;;;;5032670;28;20490;-87
2023/07/01 13:05:00;;;;;;;2.30;1.10;;;;;;;;;;5032895;28;20387;-90
2023/07/01 13:07:27;;;;;;;1.38;1.27;;;;;;;;;;5015488;28;20760;-87
2023/07/01 13:09:54;;;;;;;1.35;1.23;;;;;;;;;;5027598;28;20737;-90
2023/07/01 13:12:23;;;;;;;2.13;1.20;;;;;;;;;;5032196;28;20387;-91
2023/07/01 13:14:49;;;;;;;1.98;1.15;;;;;;;;;;5034143;28;20891;-88
2023/07/01 13:17:15;;;;;;;2.80;1.25;;;;;;;;;;5047182;28;20959;-90
2023/07/01 13:19:41;;;;;;;3.60;1.38;;;;;;;;;;5016263;28;20387;-89
2023/07/01 13:22:07;;;;;;;1.88;1.25;;;;;;;;;;5032580;28;20409;-89
2023/07/01 13:24:44;;;;;;;1.70;1.20;;;;;;;;;;5032485;28;20382;-89
2023/07/01 13:27:11;;;;;;;1.40;0.95;;;;;;;;;;5031678;28;20394;-89
2023/07/01 13:29:37;;;;;;;1.25;1.05;;;;;;;;;;5032083;28;20383;-90
2023/07/01 13:32:04;;;;;;;2.70;1.20;;;;;;;;;;5032447;28;20398;-91
2023/07/01 13:34:32;;;;;;;1.65;1.10;;;;;;;;;;5013899;28;20897;-87
2023/07/01 13:36:58;;;;;;;2.55;1.10;;;;;;;;;;5032456;28;20445;-89
2023/07/01 13:39:37;;;;;;;2.10;1.37;;;;;;;;;;5015276;28;20497;-90
2023/07/01 13:42:03;;;;;;;2.20;1.30;;;;;;;;;;5032211;28;20438;-91
2023/07/01 13:44:29;;;;;;;1.97;1.20;;;;;;;;;;5014228;28;20376;-88
2023/07/01 13:46:56;;;;;;;1.80;1.30;;;;;;;;;;5014449;28;20437;-90
2023/07/01 13:49:23;;;;;;;1.70;1.00;;;;;;;;;;5030182;28;20868;-91
2023/07/01 13:51:50;;;;;;;2.45;1.40;;;;;;;;;;5022241;28;20392;-90
2023/07/01 13:54:22;;;;;;;1.70;1.10;;;;;;;;;;5032232;28;20398;-90
2023/07/01 13:56:48;;;;;;;1.10;1.00;;;;;;;;;;5039212;28;20398;-90
2023/07/01 13:59:14;;;;;;;3.88;1.27;;;;;;;;;;5028607;28;20417;-90
2023/07/01 14:01:47;;;;;;;1.80;1.20;;;;;;;;;;5051956;28;20405;-90
2023/07/01 14:04:13;;;;;;;1.70;1.23;;;;;;;;;;5051980;28;20381;-90
2023/07/01 14:06:39;;;;;;;2.23;1.27;;;;;;;;;;5020167;28;20743;-90
2023/07/01 14:09:06;;;;;;;1.87;1.30;;;;;;;;;;5051947;28;20385;-89
2023/07/01 14:11:32;;;;;;;3.28;1.50;;;;;;;;;;5052094;28;20381;-91
2023/07/01 14:13:58;;;;;;;2.00;1.20;;;;;;;;;;5051982;28;20512;-89
2023/07/01 14:16:25;;;;;;;3.10;1.33;;;;;;;;;;5044768;28;20429;-90
2023/07/01 14:18:52;;;;;;;1.52;1.20;;;;;;;;;;5034534;28;20516;-89
2023/07/01 14:21:18;;;;;;;2.45;1.30;;;;;;;;;;5035323;28;20497;-90
2023/07/01 14:23:45;;;;;;;2.47;1.50;;;;;;;;;;5031352;28;20375;-89
2023/07/01 14:26:18;;;;;;;2.70;1.70;;;;;;;;;;5043580;28;20373;-86
2023/07/01 14:28:44;;;;;;;2.22;1.40;;;;;;;;;;5047079;28;20390;-86
2023/07/01 14:31:11;;;;;;;3.15;1.40;;;;;;;;;;5042553;28;20404;-86
2023/07/01 14:33:41;;;;;;;1.90;1.45;;;;;;;;;;5051263;28;20389;-86
2023/07/01 14:36:11;;;;;;;2.30;1.20;;;;;;;;;;5051811;28;20468;-85
2023/07/01 14:38:46;;;;;;;2.45;1.25;;;;;;;;;;5051637;28;20437;-89
2023/07/01 14:41:31;;;;;;;2.60;1.40;;;;;;;;;;5051634;28;20393;-89
2023/07/01 14:43:59;;;;;;;2.20;1.30;;;;;;;;;;5015955;28;20387;-91
2023/07/01 14:46:27;;;;;;;1.70;1.60;;;;;;;;;;5031811;28;20379;-89